Time;durP1;ratioP1;P1;durP2;ratioP2;P2;SDS_P1;SDS_P2;PMS_P1;PMS_P2;Temp;Humidity;BMP_temperature;BMP_pressure;BME280_temperature;BME280_humidity;BME280_pressure;Samples;Min_cycle;Max_cycle;Signal;HPM_P1;HPM_P2
2021/01/05 00:00:42;;;;;;;23.07;20.60;;;1.10;99.90;;;;;;6097672;23;20501;-77
2021/01/05 00:03:09;;;;;;;22.87;20.43;;;1.10;99.90;;;;;;6099613;23;20393;-77
2021/01/05 00:05:35;;;;;;;25.63;20.67;;;1.20;99.90;;;;;;6099697;23;20426;-77
2021/01/05 00:08:01;;;;;;;21.97;19.67;;;1.20;99.90;;;;;;6099561;23;20418;-77
2021/01/05 00:10:28;;;;;;;22.40;20.07;;;1.20;99.90;;;;;;6099064;23;20414;-77
2021/01/05 00:12:54;;;;;;;22.17;19.77;;;1.30;99.90;;;;;;6099925;23;20406;-78
2021/01/05 00:15:21;;;;;;;24.03;21.23;;;1.20;99.90;;;;;;6099772;23;20398;-78
2021/01/05 00:17:47;;;;;;;22.77;20.23;;;1.20;99.90;;;;;;6098385;23;20468;-77
2021/01/05 00:20:17;;;;;;;23.87;21.53;;;1.20;99.90;;;;;;6097380;23;20438;-77
2021/01/05 00:22:43;;;;;;;23.23;20.90;;;1.20;99.90;;;;;;6099487;23;20398;-77
2021/01/05 00:25:12;;;;;;;22.07;19.70;;;1.20;99.90;;;;;;6098213;23;20787;-78
2021/01/05 00:27:38;;;;;;;23.03;20.67;;;1.20;99.90;;;;;;6100170;23;20450;-77
2021/01/05 00:30:11;;;;;;;22.57;19.87;;;1.30;99.90;;;;;;6100264;23;20414;-77
2021/01/05 00:32:40;;;;;;;21.93;19.63;;;1.20;99.90;;;;;;6100147;23;20449;-77
2021/01/05 00:35:08;;;;;;;22.50;20.07;;;1.30;99.90;;;;;;6099958;23;20398;-78
2021/01/05 00:37:35;;;;;;;24.40;21.80;;;1.30;99.90;;;;;;6099695;23;20402;-77
2021/01/05 00:40:01;;;;;;;22.67;20.23;;;1.30;99.90;;;;;;6097926;23;20438;-77
2021/01/05 00:42:27;;;;;;;22.83;20.60;;;1.20;99.90;;;;;;6099555;23;20386;-77
2021/01/05 00:44:53;;;;;;;22.93;20.50;;;1.20;99.90;;;;;;6097685;23;20418;-77
2021/01/05 00:47:20;;;;;;;22.07;19.90;;;1.20;99.90;;;;;;6099592;23;20398;-77
2021/01/05 00:49:46;;;;;;;22.53;20.13;;;1.30;99.90;;;;;;6097820;23;20472;-76
2021/01/05 00:52:12;;;;;;;21.73;19.43;;;1.30;99.90;;;;;;6098526;23;20996;-77
2021/01/05 00:54:40;;;;;;;22.10;20.00;;;1.30;99.90;;;;;;6097394;23;20422;-77
2021/01/05 00:57:08;;;;;;;21.07;18.97;;;1.30;99.90;;;;;;6098092;23;20915;-77
2021/01/05 00:59:39;;;;;;;22.83;20.50;;;1.30;99.90;;;;;;6097443;23;20434;-77
2021/01/05 01:02:06;;;;;;;21.70;19.30;;;1.20;99.90;;;;;;6098046;23;20418;-77
2021/01/05 01:04:35;;;;;;;21.87;19.47;;;1.20;99.90;;;;;;6097744;23;20430;-77
2021/01/05 01:07:03;;;;;;;23.30;20.90;;;1.30;99.90;;;;;;6099210;23;20429;-77
2021/01/05 01:09:30;;;;;;;21.50;19.33;;;1.20;99.90;;;;;;6097625;23;20441;-76
2021/01/05 01:12:00;;;;;;;21.67;19.33;;;1.30;99.90;;;;;;6098100;23;20426;-76
2021/01/05 01:14:27;;;;;;;21.97;19.77;;;1.30;99.90;;;;;;6097789;23;20437;-77
2021/01/05 01:16:54;;;;;;;21.97;19.83;;;1.30;99.90;;;;;;6097683;23;20901;-76
2021/01/05 01:19:21;;;;;;;22.43;19.93;;;1.30;99.90;;;;;;6097082;23;20469;-77
2021/01/05 01:21:49;;;;;;;21.77;19.53;;;1.40;99.90;;;;;;6098559;23;20429;-77
2021/01/05 01:24:18;;;;;;;21.60;19.33;;;1.30;99.90;;;;;;6097054;23;20424;-76
2021/01/05 01:26:44;;;;;;;21.73;19.60;;;1.30;99.90;;;;;;6098275;23;20467;-76
2021/01/05 01:29:14;;;;;;;21.60;19.40;;;1.30;99.90;;;;;;6097696;23;20438;-77
2021/01/05 01:31:41;;;;;;;21.57;19.23;;;1.30;99.90;;;;;;6097611;23;20458;-77
2021/01/05 01:34:08;;;;;;;21.00;18.97;;;1.30;99.90;;;;;;6099475;23;20414;-75
2021/01/05 01:36:34;;;;;;;20.33;18.43;;;1.30;99.90;;;;;;6097888;23;20945;-76
2021/01/05 01:39:01;;;;;;;20.77;18.67;;;1.40;99.90;;;;;;6097774;23;20425;-77
2021/01/05 01:41:27;;;;;;;21.30;19.20;;;1.40;99.90;;;;;;6098126;23;20418;-77
2021/01/05 01:43:58;;;;;;;24.13;21.53;;;1.40;99.90;;;;;;6097842;23;20495;-76
2021/01/05 01:46:30;;;;;;;21.90;19.90;;;1.40;99.90;;;;;;6097602;23;20442;-77
2021/01/05 01:48:56;;;;;;;22.20;20.03;;;1.30;99.90;;;;;;6099384;23;20385;-77
2021/01/05 01:51:23;;;;;;;21.83;19.73;;;1.40;99.90;;;;;;6098455;23;20781;-76
2021/01/05 01:54:25;;;;;;;21.63;19.43;;;1.40;99.90;;;;;;6098175;23;20406;-77
2021/01/05 01:57:12;;;;;;;23.17;20.87;;;1.40;99.90;;;;;;6098141;23;20438;-76
2021/01/05 02:00:01;;;;;;;20.80;18.70;;;1.50;99.90;;;;;;6097698;23;20438;-77
2021/01/05 02:03:10;;;;;;;20.80;18.90;;;1.40;99.90;;;;;;6099619;23;20423;-77
2021/01/05 02:05:47;;;;;;;20.27;18.40;;;1.40;99.90;;;;;;6101822;23;20448;-77
2021/01/05 02:08:30;;;;;;;19.87;18.00;;;1.40;99.90;;;;;;6098227;23;20416;-77
2021/01/05 02:11:14;;;;;;;20.73;18.73;;;1.40;99.90;;;;;;6099399;23;20446;-78
2021/01/05 02:13:59;;;;;;;22.97;20.47;;;1.40;99.90;;;;;;6099905;23;20756;-76
2021/01/05 02:16:37;;;;;;;21.80;19.50;;;1.40;99.90;;;;;;6099770;23;20420;-77
2021/01/05 02:19:17;;;;;;;21.60;19.60;;;1.40;99.90;;;;;;6099641;23;20932;-77
2021/01/05 02:21:54;;;;;;;22.20;20.07;;;1.40;99.90;;;;;;6100078;23;20406;-77
2021/01/05 02:24:37;;;;;;;21.23;19.13;;;1.40;99.90;;;;;;6099698;23;20479;-77
2021/01/05 02:27:08;;;;;;;20.27;18.50;;;1.40;99.90;;;;;;6099574;23;20496;-77
2021/01/05 02:29:39;;;;;;;20.13;18.13;;;1.40;99.90;;;;;;6099335;23;20759;-77
2021/01/05 02:32:15;;;;;;;19.90;18.10;;;1.50;99.90;;;;;;6099311;23;20931;-76
2021/01/05 02:35:02;;;;;;;20.07;18.27;;;1.50;99.90;;;;;;6099332;23;20417;-77
2021/01/05 02:38:01;;;;;;;20.73;18.73;;;1.50;99.90;;;;;;6101441;23;20434;-76
2021/01/05 02:41:01;;;;;;;22.27;20.17;;;1.50;99.90;;;;;;6100959;23;20920;-77
2021/01/05 02:44:19;;;;;;;21.60;19.50;;;1.50;99.90;;;;;;6042557;23;20432;-77
2021/01/05 02:47:22;;;;;;;20.30;18.37;;;1.50;99.90;;;;;;6100820;23;21123;-77
2021/01/05 02:50:13;;;;;;;20.33;18.53;;;1.50;99.90;;;;;;6100667;23;20424;-77
2021/01/05 02:53:39;;;;;;;20.00;18.10;;;1.50;99.90;;;;;;6100975;23;20394;-77
2021/01/05 02:57:02;;;;;;;20.03;18.00;;;1.50;99.90;;;;;;6100298;23;20382;-78
2021/01/05 03:00:23;;;;;;;22.03;19.37;;;1.40;99.90;;;;;;6100321;23;20546;-78
2021/01/05 03:03:43;;;;;;;19.87;18.07;;;1.50;99.90;;;;;;6100523;23;20426;-76
2021/01/05 03:06:38;;;;;;;20.97;18.87;;;1.50;99.90;;;;;;6100522;23;20435;-77
2021/01/05 03:09:46;;;;;;;19.13;17.50;;;1.50;99.90;;;;;;6100474;23;20429;-77
2021/01/05 03:13:01;;;;;;;20.30;18.37;;;1.50;99.90;;;;;;6100670;23;20493;-76
2021/01/05 03:15:51;;;;;;;19.73;17.93;;;1.50;99.90;;;;;;6101106;23;20397;-77
2021/01/05 03:18:47;;;;;;;21.57;19.67;;;1.50;99.90;;;;;;6100282;23;20406;-77
2021/01/05 03:21:36;;;;;;;19.47;17.77;;;1.50;99.90;;;;;;6101015;23;20885;-77
2021/01/05 03:24:22;;;;;;;21.30;19.40;;;1.50;99.90;;;;;;6099323;23;20405;-77
2021/01/05 03:27:09;;;;;;;20.23;18.43;;;1.50;99.90;;;;;;6099608;23;20433;-77
2021/01/05 03:29:56;;;;;;;21.50;19.47;;;1.50;99.90;;;;;;6099253;23;20417;-77
2021/01/05 03:32:41;;;;;;;20.97;18.87;;;1.40;99.90;;;;;;6096658;23;20434;-76
2021/01/05 03:35:27;;;;;;;19.97;18.03;;;1.50;99.90;;;;;;6096031;23;20381;-77
2021/01/05 03:38:12;;;;;;;20.67;18.67;;;1.50;99.90;;;;;;6096330;23;20386;-76
2021/01/05 03:40:57;;;;;;;20.70;18.80;;;1.50;99.90;;;;;;6095926;23;20524;-75
2021/01/05 03:43:42;;;;;;;21.60;19.53;;;1.50;99.90;;;;;;6098452;23;20432;-77
2021/01/05 03:46:31;;;;;;;20.40;18.43;;;1.50;99.90;;;;;;6041824;23;20456;-76
2021/01/05 03:49:16;;;;;;;21.27;19.27;;;1.60;99.90;;;;;;6095120;23;20425;-75
2021/01/05 03:52:02;;;;;;;20.43;18.53;;;1.50;99.90;;;;;;6095691;23;20438;-75
2021/01/05 03:54:47;;;;;;;22.17;20.17;;;1.50;99.90;;;;;;6095567;23;20526;-75
2021/01/05 03:57:32;;;;;;;21.27;19.27;;;1.50;99.90;;;;;;6096477;23;20925;-77
2021/01/05 04:00:24;;;;;;;20.60;18.53;;;1.50;99.90;;;;;;6096771;23;20902;-77
2021/01/05 04:02:50;;;;;;;21.63;19.33;;;1.50;99.90;;;;;;6098376;23;20723;-78
2021/01/05 04:05:17;;;;;;;20.03;18.13;;;1.50;99.90;;;;;;6092340;23;20871;-75
2021/01/05 04:07:44;;;;;;;20.53;18.53;;;1.50;99.90;;;;;;6095647;23;20391;-76
2021/01/05 04:10:11;;;;;;;20.87;18.87;;;1.50;99.90;;;;;;6094079;23;20441;-76
2021/01/05 04:12:38;;;;;;;22.20;20.00;;;1.50;99.90;;;;;;6094378;23;20430;-76
2021/01/05 04:15:06;;;;;;;21.63;19.63;;;1.50;99.90;;;;;;6096156;23;20395;-75
2021/01/05 04:17:33;;;;;;;22.83;20.27;;;1.50;99.90;;;;;;6093961;23;20972;-76
2021/01/05 04:19:59;;;;;;;21.73;19.70;;;1.50;99.90;;;;;;6096351;23;20799;-76
2021/01/05 04:22:25;;;;;;;20.70;18.57;;;1.50;99.90;;;;;;6095100;23;20426;-76
2021/01/05 04:24:52;;;;;;;21.00;19.00;;;1.50;99.90;;;;;;6094377;23;20418;-76
2021/01/05 04:27:19;;;;;;;21.07;19.13;;;1.50;99.90;;;;;;6096952;23;20481;-75
2021/01/05 04:29:45;;;;;;;22.37;20.07;;;1.50;99.90;;;;;;6094395;23;20426;-76
2021/01/05 04:32:11;;;;;;;22.00;19.80;;;1.50;99.90;;;;;;6096495;23;20394;-75
2021/01/05 04:34:38;;;;;;;21.23;19.13;;;1.50;99.90;;;;;;6094249;23;20473;-75
2021/01/05 04:37:04;;;;;;;21.93;19.83;;;1.50;99.90;;;;;;6094095;23;20465;-74
2021/01/05 04:39:30;;;;;;;22.23;20.07;;;1.50;99.90;;;;;;6093426;23;20438;-75
2021/01/05 04:42:04;;;;;;;21.63;19.53;;;1.50;99.90;;;;;;6093802;23;20749;-76
2021/01/05 04:44:38;;;;;;;21.70;19.47;;;1.50;99.90;;;;;;6094043;23;20502;-75
2021/01/05 04:47:17;;;;;;;21.23;19.30;;;1.50;99.90;;;;;;6093796;23;20844;-75
2021/01/05 04:50:07;;;;;;;23.27;21.00;;;1.50;99.90;;;;;;6095494;23;20477;-76
2021/01/05 04:52:40;;;;;;;23.40;21.00;;;1.50;99.90;;;;;;6095347;23;20389;-76
2021/01/05 04:55:20;;;;;;;22.43;20.27;;;1.50;99.90;;;;;;6095458;23;20382;-76
2021/01/05 04:57:53;;;;;;;22.30;19.97;;;1.50;99.90;;;;;;6095810;23;20374;-77
2021/01/05 05:00:25;;;;;;;23.43;20.90;;;1.50;99.90;;;;;;6094096;23;20436;-76
2021/01/05 05:03:05;;;;;;;21.47;19.23;;;1.50;99.90;;;;;;6095343;23;20413;-76
2021/01/05 05:05:43;;;;;;;21.50;19.57;;;1.50;99.90;;;;;;6094137;23;20436;-77
2021/01/05 05:08:47;;;;;;;22.67;20.47;;;1.50;99.90;;;;;;6096074;23;20380;-76
2021/01/05 05:11:17;;;;;;;22.53;20.13;;;1.60;99.90;;;;;;6093639;23;20505;-79
2021/01/05 05:13:51;;;;;;;24.10;21.67;;;1.60;99.90;;;;;;6093765;23;20473;-76
2021/01/05 05:16:38;;;;;;;21.90;19.77;;;1.60;99.90;;;;;;6095111;23;20842;-76
2021/01/05 05:19:14;;;;;;;23.37;21.03;;;1.60;99.90;;;;;;6093393;23;20412;-76
2021/01/05 05:21:47;;;;;;;22.67;20.33;;;1.50;99.90;;;;;;6095680;23;20766;-76
2021/01/05 05:24:25;;;;;;;22.23;20.10;;;1.60;99.90;;;;;;6095431;23;20850;-75
2021/01/05 05:26:58;;;;;;;22.50;20.37;;;1.60;99.90;;;;;;6093828;23;20433;-76
2021/01/05 05:29:43;;;;;;;21.87;19.87;;;1.60;99.90;;;;;;6093798;23;20434;-75
2021/01/05 05:32:24;;;;;;;22.90;20.53;;;1.60;99.90;;;;;;6094760;23;20390;-75
2021/01/05 05:34:56;;;;;;;24.60;22.00;;;1.60;99.90;;;;;;6095395;23;20379;-75
2021/01/05 05:37:45;;;;;;;24.10;21.60;;;1.60;99.90;;;;;;6095618;23;20849;-75
2021/01/05 05:40:19;;;;;;;25.40;22.70;;;1.60;99.90;;;;;;6096571;23;20418;-75
2021/01/05 05:43:16;;;;;;;24.57;22.07;;;1.60;99.90;;;;;;6094606;23;20436;-75
2021/01/05 05:45:47;;;;;;;24.40;22.00;;;1.60;99.90;;;;;;6094927;23;20959;-76
2021/01/05 05:48:21;;;;;;;23.47;21.33;;;1.60;99.90;;;;;;6097343;23;20413;-75
2021/01/05 05:50:58;;;;;;;25.83;22.53;;;1.60;99.90;;;;;;6097381;23;20420;-78
2021/01/05 05:53:29;;;;;;;24.87;22.30;;;1.60;99.90;;;;;;6096665;23;20852;-76
2021/01/05 05:56:01;;;;;;;23.73;21.30;;;1.50;99.90;;;;;;6097408;23;20379;-76
2021/01/05 05:58:30;;;;;;;25.23;22.67;;;1.50;99.90;;;;;;6097439;23;20382;-76
2021/01/05 06:01:01;;;;;;;25.10;22.43;;;1.50;99.90;;;;;;6097433;23;20755;-76
2021/01/05 06:03:28;;;;;;;24.57;22.00;;;1.50;99.90;;;;;;6098639;23;20846;-79
2021/01/05 06:05:55;;;;;;;25.50;22.90;;;1.50;99.90;;;;;;6095872;23;20429;-75
2021/01/05 06:08:23;;;;;;;23.20;20.87;;;1.50;99.90;;;;;;6096171;23;20924;-75
2021/01/05 06:10:50;;;;;;;24.07;21.57;;;1.50;99.90;;;;;;6094635;23;20442;-75
2021/01/05 06:13:16;;;;;;;24.17;21.70;;;1.50;99.90;;;;;;6096466;23;20402;-75
2021/01/05 06:15:43;;;;;;;24.10;21.70;;;1.50;99.90;;;;;;6103737;23;20736;-78
2021/01/05 06:18:12;;;;;;;27.43;22.53;;;1.50;99.90;;;;;;6098137;23;20386;-75
2021/01/05 06:20:39;;;;;;;27.27;23.00;;;1.50;99.90;;;;;;6096517;23;20454;-75
2021/01/05 06:23:05;;;;;;;23.30;20.90;;;1.50;99.90;;;;;;6098713;23;20475;-77
2021/01/05 06:25:32;;;;;;;24.77;22.23;;;1.50;99.90;;;;;;6096048;23;20414;-77
2021/01/05 06:27:58;;;;;;;24.43;21.70;;;1.50;99.90;;;;;;6097339;23;20387;-76
2021/01/05 06:30:25;;;;;;;25.47;22.80;;;1.50;99.90;;;;;;6097534;23;20418;-76
2021/01/05 06:32:51;;;;;;;24.40;21.97;;;1.50;99.90;;;;;;6096556;23;20496;-76
2021/01/05 06:35:22;;;;;;;24.20;22.00;;;1.50;99.90;;;;;;6097545;23;20418;-77
2021/01/05 06:37:49;;;;;;;24.73;22.23;;;1.50;99.90;;;;;;6099136;23;20415;-76
2021/01/05 06:40:19;;;;;;;23.40;21.10;;;1.50;99.90;;;;;;6098337;23;20449;-76
2021/01/05 06:42:45;;;;;;;27.00;21.87;;;1.60;99.90;;;;;;6098273;23;20908;-76
2021/01/05 06:45:17;;;;;;;24.67;21.90;;;1.60;99.90;;;;;;6097824;23;20404;-76
2021/01/05 06:47:44;;;;;;;25.63;22.93;;;1.60;99.90;;;;;;6095655;23;20451;-76
2021/01/05 06:50:11;;;;;;;22.73;20.37;;;1.60;99.90;;;;;;6095626;23;20430;-76
2021/01/05 06:52:38;;;;;;;26.90;23.43;;;1.60;99.90;;;;;;6096058;23;20509;-76
2021/01/05 06:55:07;;;;;;;24.03;21.53;;;1.60;99.90;;;;;;6096020;23;20804;-77
2021/01/05 06:57:33;;;;;;;24.90;22.20;;;1.60;99.90;;;;;;6097494;23;20473;-76
2021/01/05 06:59:59;;;;;;;27.20;23.23;;;1.60;99.90;;;;;;6095798;23;20451;-76
2021/01/05 07:02:26;;;;;;;29.77;24.17;;;1.60;99.90;;;;;;6097605;23;20395;-76
2021/01/05 07:04:52;;;;;;;24.97;22.40;;;1.60;99.90;;;;;;6097625;23;20391;-76
2021/01/05 07:07:19;;;;;;;24.67;22.27;;;1.60;99.90;;;;;;6097271;23;20834;-76
2021/01/05 07:09:46;;;;;;;25.73;23.07;;;1.60;99.90;;;;;;6095594;23;20429;-76
2021/01/05 07:12:12;;;;;;;27.50;23.07;;;1.60;99.90;;;;;;6097296;23;20406;-76
2021/01/05 07:14:39;;;;;;;24.17;21.63;;;1.60;99.90;;;;;;6095972;23;20484;-76
2021/01/05 07:17:05;;;;;;;25.63;23.00;;;1.60;99.90;;;;;;6096145;23;20418;-76
2021/01/05 07:19:31;;;;;;;30.70;23.60;;;1.70;99.90;;;;;;6095457;23;20466;-76
2021/01/05 07:21:58;;;;;;;25.03;22.57;;;1.60;99.90;;;;;;6097465;23;20395;-76
2021/01/05 07:24:24;;;;;;;26.13;23.33;;;1.60;99.90;;;;;;6095885;23;20425;-76
2021/01/05 07:26:51;;;;;;;26.87;24.07;;;1.70;99.90;;;;;;6095238;23;20448;-76
2021/01/05 07:29:20;;;;;;;25.67;23.03;;;1.70;99.90;;;;;;6096712;23;20410;-76
2021/01/05 07:31:47;;;;;;;26.17;23.63;;;1.70;99.90;;;;;;6097239;23;20846;-77
2021/01/05 07:34:14;;;;;;;28.30;25.30;;;1.70;99.90;;;;;;6095792;23;20821;-76
2021/01/05 07:36:43;;;;;;;27.77;24.60;;;1.70;99.90;;;;;;6096246;23;20419;-76
2021/01/05 07:39:20;;;;;;;28.03;24.83;;;1.70;99.90;;;;;;6096864;23;20736;-76
2021/01/05 07:41:47;;;;;;;28.70;23.37;;;1.70;99.90;;;;;;6096018;23;20401;-74
2021/01/05 07:44:14;;;;;;;25.27;22.67;;;1.70;99.90;;;;;;6096230;23;20386;-75
2021/01/05 07:46:41;;;;;;;26.13;22.57;;;1.70;99.90;;;;;;6096533;23;20777;-75
2021/01/05 07:49:08;;;;;;;26.57;23.67;;;1.70;99.90;;;;;;6095492;23;20884;-77
2021/01/05 07:51:34;;;;;;;28.40;24.73;;;1.70;99.90;;;;;;6096303;23;20736;-76
2021/01/05 07:54:01;;;;;;;27.63;24.50;;;1.70;99.90;;;;;;6094150;23;20759;-76
2021/01/05 07:56:28;;;;;;;27.87;23.77;;;1.80;99.90;;;;;;6095856;23;20401;-76
2021/01/05 07:58:54;;;;;;;28.63;24.43;;;1.80;99.90;;;;;;6094033;23;20423;-76
2021/01/05 08:01:28;;;;;;;25.17;22.40;;;1.80;99.90;;;;;;6093586;23;20425;-76
2021/01/05 08:03:54;;;;;;;28.13;24.67;;;1.80;99.90;;;;;;6095598;23;20433;-76
2021/01/05 08:06:21;;;;;;;27.60;23.47;;;1.80;99.90;;;;;;6095012;23;20438;-76
2021/01/05 08:08:47;;;;;;;29.83;24.63;;;1.80;99.90;;;;;;6096228;23;20448;-76
2021/01/05 08:11:13;;;;;;;28.47;24.87;;;1.80;99.90;;;;;;6095279;23;20763;-76
2021/01/05 08:13:40;;;;;;;26.47;23.93;;;1.90;99.90;;;;;;6095243;23;20453;-76
2021/01/05 08:16:06;;;;;;;30.50;24.57;;;1.80;99.90;;;;;;6093602;23;20421;-76
2021/01/05 08:18:33;;;;;;;26.40;23.43;;;1.80;99.90;;;;;;6094478;23;20390;-79
2021/01/05 08:20:59;;;;;;;25.63;23.03;;;1.90;99.90;;;;;;6094535;23;20458;-76
2021/01/05 08:23:25;;;;;;;27.60;23.97;;;1.90;99.90;;;;;;6094872;23;20417;-77
2021/01/05 08:25:52;;;;;;;26.70;23.87;;;1.90;99.90;;;;;;6096967;23;20432;-76
2021/01/05 08:28:18;;;;;;;27.83;24.30;;;1.80;99.90;;;;;;6097520;23;20873;-77
2021/01/05 08:30:44;;;;;;;30.23;24.73;;;1.90;99.90;;;;;;6095323;23;20747;-76
2021/01/05 08:33:13;;;;;;;29.27;23.73;;;1.90;99.90;;;;;;6094402;23;20414;-77
2021/01/05 08:35:40;;;;;;;35.13;25.90;;;1.90;99.90;;;;;;6094530;23;20930;-76
2021/01/05 08:38:06;;;;;;;30.97;25.33;;;1.90;99.90;;;;;;6093971;23;20419;-76
2021/01/05 08:40:35;;;;;;;28.57;24.37;;;1.90;99.90;;;;;;6093652;23;20449;-77
2021/01/05 08:43:03;;;;;;;27.13;22.33;;;1.90;99.90;;;;;;6094000;23;20935;-76
2021/01/05 08:45:30;;;;;;;23.10;20.60;;;1.90;99.90;;;;;;6095643;23;20412;-76
2021/01/05 08:47:57;;;;;;;25.30;22.30;;;1.90;99.90;;;;;;6093757;23;20489;-75
2021/01/05 08:50:28;;;;;;;26.60;22.47;;;1.90;99.90;;;;;;6094613;23;20948;-76
2021/01/05 08:52:56;;;;;;;29.60;24.77;;;1.90;99.90;;;;;;6094446;23;20912;-76
2021/01/05 08:55:22;;;;;;;24.97;22.03;;;1.80;99.90;;;;;;6094893;23;20395;-76
2021/01/05 08:57:49;;;;;;;29.40;23.63;;;1.90;99.90;;;;;;6095234;23;20390;-76
2021/01/05 09:00:16;;;;;;;28.87;23.77;;;1.90;99.90;;;;;;6095384;23;20410;-77
2021/01/05 09:02:42;;;;;;;29.60;23.57;;;1.90;99.90;;;;;;6096839;23;20409;-77
2021/01/05 09:05:10;;;;;;;28.23;22.97;;;1.90;99.90;;;;;;6095918;23;20913;-76
2021/01/05 09:07:36;;;;;;;29.27;24.10;;;1.90;99.90;;;;;;6095650;23;20437;-76
2021/01/05 09:10:05;;;;;;;29.60;23.53;;;1.90;99.90;;;;;;6093816;23;20430;-77
2021/01/05 09:12:32;;;;;;;28.83;24.07;;;1.90;99.90;;;;;;6094561;23;20494;-77
2021/01/05 09:14:58;;;;;;;31.00;23.80;;;1.90;99.90;;;;;;6096331;23;20781;-76
2021/01/05 09:17:25;;;;;;;30.37;24.43;;;2.00;99.90;;;;;;6095526;23;20391;-77
2021/01/05 09:19:51;;;;;;;30.13;24.87;;;2.10;99.90;;;;;;6096126;23;20465;-76
2021/01/05 09:22:22;;;;;;;30.37;25.20;;;2.00;99.90;;;;;;6094502;23;20415;-77
2021/01/05 09:24:48;;;;;;;31.17;24.73;;;2.00;99.90;;;;;;6095283;23;20402;-76
2021/01/05 09:27:15;;;;;;;30.90;25.37;;;2.10;99.90;;;;;;6094092;23;20445;-76
2021/01/05 09:29:41;;;;;;;31.07;24.27;;;2.10;99.90;;;;;;6095187;23;20447;-76
2021/01/05 09:32:08;;;;;;;29.07;24.47;;;2.20;99.90;;;;;;6095640;23;20409;-77
2021/01/05 09:34:34;;;;;;;28.03;23.70;;;2.20;99.90;;;;;;6096211;23;20394;-77
2021/01/05 09:37:03;;;;;;;30.67;25.00;;;2.20;99.90;;;;;;6095821;23;20398;-77
2021/01/05 09:39:29;;;;;;;28.43;24.43;;;2.20;99.90;;;;;;6095517;23;20413;-76
2021/01/05 09:41:58;;;;;;;26.77;23.47;;;2.20;99.90;;;;;;6095834;23;20782;-76
2021/01/05 09:44:25;;;;;;;28.13;24.77;;;2.20;99.90;;;;;;6093996;23;20410;-77
2021/01/05 09:46:56;;;;;;;28.30;24.50;;;2.20;99.90;;;;;;6094440;23;20477;-77
2021/01/05 09:49:23;;;;;;;31.07;24.90;;;2.20;99.90;;;;;;6095885;23;20930;-76
2021/01/05 09:51:49;;;;;;;30.30;25.57;;;2.20;99.90;;;;;;6095541;23;20404;-76
2021/01/05 09:54:18;;;;;;;34.73;26.27;;;2.30;99.90;;;;;;6092956;23;20414;-77
2021/01/05 09:56:50;;;;;;;30.27;25.27;;;2.20;99.90;;;;;;6093887;23;20399;-76
2021/01/05 09:59:16;;;;;;;31.63;24.50;;;2.20;99.90;;;;;;6095714;23;20475;-76
2021/01/05 10:01:43;;;;;;;32.47;25.47;;;2.20;99.90;;;;;;6096611;23;20391;-76
2021/01/05 10:04:10;;;;;;;34.10;25.63;;;2.30;99.90;;;;;;6095770;23;20418;-76
2021/01/05 10:06:36;;;;;;;32.67;25.87;;;2.30;99.90;;;;;;6096463;23;20468;-76
2021/01/05 10:09:08;;;;;;;32.57;25.80;;;2.20;99.90;;;;;;6095614;23;20725;-77
2021/01/05 10:11:36;;;;;;;36.10;26.73;;;2.20;99.90;;;;;;6094693;23;20902;-76
2021/01/05 10:14:03;;;;;;;34.03;27.30;;;2.20;99.90;;;;;;6094112;23;20415;-76
2021/01/05 10:16:29;;;;;;;34.53;25.67;;;2.20;99.90;;;;;;6092469;23;20428;-76
2021/01/05 10:18:56;;;;;;;31.60;24.97;;;2.20;99.90;;;;;;6093381;23;20418;-77
2021/01/05 10:21:31;;;;;;;32.27;24.03;;;2.20;99.90;;;;;;6092781;23;20432;-76
2021/01/05 10:23:57;;;;;;;31.77;26.70;;;2.20;99.90;;;;;;6097883;23;20378;-76
2021/01/05 10:26:23;;;;;;;32.03;25.87;;;2.20;99.90;;;;;;6095983;23;20952;-77
2021/01/05 10:28:50;;;;;;;36.73;25.97;;;2.20;99.90;;;;;;6088475;23;20489;-76
2021/01/05 10:31:16;;;;;;;35.43;27.07;;;2.20;99.90;;;;;;6096161;23;20763;-76
2021/01/05 10:33:42;;;;;;;35.23;26.67;;;2.10;99.90;;;;;;6097327;23;20391;-77
2021/01/05 10:36:10;;;;;;;35.63;26.87;;;2.10;99.90;;;;;;6097116;23;20922;-77
2021/01/05 10:38:36;;;;;;;34.00;25.93;;;2.20;99.90;;;;;;6096850;23;20773;-77
2021/01/05 10:41:02;;;;;;;35.10;27.10;;;2.30;99.90;;;;;;6095596;23;20455;-76
2021/01/05 10:43:29;;;;;;;29.47;24.87;;;2.30;99.90;;;;;;6097121;23;20756;-76
2021/01/05 10:45:55;;;;;;;35.10;27.23;;;2.30;99.90;;;;;;6097093;23;20395;-77
2021/01/05 10:48:21;;;;;;;33.97;25.57;;;2.30;99.90;;;;;;6095945;23;20418;-76
2021/01/05 10:50:47;;;;;;;30.17;24.53;;;2.30;99.90;;;;;;6096513;23;20416;-77
2021/01/05 10:53:15;;;;;;;33.03;25.90;;;2.30;99.90;;;;;;6094728;23;20424;-77
2021/01/05 10:55:41;;;;;;;31.00;26.00;;;2.40;99.90;;;;;;6095312;23;20400;-78
2021/01/05 10:58:07;;;;;;;32.40;25.27;;;2.40;99.90;;;;;;6093354;23;20414;-76
2021/01/05 11:00:33;;;;;;;27.60;23.27;;;2.40;99.90;;;;;;6096476;23;20414;-76
2021/01/05 11:03:00;;;;;;;33.70;25.83;;;2.40;99.90;;;;;;6095968;23;20734;-76
2021/01/05 11:05:26;;;;;;;35.10;27.37;;;2.40;99.90;;;;;;6095938;23;20400;-77
2021/01/05 11:07:53;;;;;;;38.00;28.10;;;2.40;99.90;;;;;;6096228;23;20937;-76
2021/01/05 11:10:21;;;;;;;34.17;26.23;;;2.40;99.90;;;;;;6095061;23;20434;-77
2021/01/05 11:12:48;;;;;;;33.80;25.63;;;2.40;99.90;;;;;;6084729;23;20408;-76
2021/01/05 11:15:16;;;;;;;35.57;25.63;;;2.40;99.90;;;;;;6095633;23;20425;-77
2021/01/05 11:17:44;;;;;;;39.70;27.83;;;2.40;99.90;;;;;;6095164;23;20414;-77
2021/01/05 11:20:12;;;;;;;34.50;26.43;;;2.40;99.90;;;;;;6096494;23;20422;-77
2021/01/05 11:22:38;;;;;;;34.33;26.87;;;2.40;99.90;;;;;;6096198;23;20425;-77
2021/01/05 11:25:05;;;;;;;35.57;27.87;;;2.40;99.90;;;;;;6097369;23;20389;-77
2021/01/05 11:27:33;;;;;;;34.83;25.70;;;2.40;99.90;;;;;;6097395;23;20484;-77
2021/01/05 11:29:59;;;;;;;34.63;26.30;;;2.40;99.90;;;;;;6096908;23;20412;-77
2021/01/05 11:32:25;;;;;;;29.80;25.20;;;2.40;99.90;;;;;;6095359;23;20412;-76
2021/01/05 11:34:51;;;;;;;29.93;24.47;;;2.40;99.90;;;;;;6096176;23;20383;-76
2021/01/05 11:37:20;;;;;;;33.27;24.57;;;2.40;99.90;;;;;;6094671;23;20417;-77
2021/01/05 11:39:48;;;;;;;34.90;25.33;;;2.40;99.90;;;;;;6096212;23;20916;-78
2021/01/05 11:42:16;;;;;;;33.23;25.77;;;2.50;99.90;;;;;;6097017;23;20472;-78
2021/01/05 11:44:46;;;;;;;34.73;26.50;;;2.50;99.90;;;;;;6097647;23;20386;-77
2021/01/05 11:47:12;;;;;;;34.70;26.67;;;2.50;99.90;;;;;;6097011;23;20430;-75
2021/01/05 11:49:39;;;;;;;37.90;27.33;;;2.60;99.90;;;;;;6096766;23;20414;-76
2021/01/05 11:52:05;;;;;;;34.63;27.03;;;2.60;99.90;;;;;;6096519;23;20398;-76
2021/01/05 11:54:31;;;;;;;35.17;28.13;;;2.60;99.90;;;;;;6096845;23;20390;-77
2021/01/05 11:56:59;;;;;;;34.43;27.33;;;2.50;99.90;;;;;;6096790;23;20394;-77
2021/01/05 11:59:26;;;;;;;37.13;27.83;;;2.50;99.90;;;;;;6096450;23;20408;-76
2021/01/05 12:01:53;;;;;;;39.23;27.80;;;2.50;99.90;;;;;;6096369;23;20873;-77
2021/01/05 12:04:20;;;;;;;36.60;27.83;;;2.60;99.90;;;;;;6093876;23;20807;-76
2021/01/05 12:06:47;;;;;;;37.97;26.33;;;2.60;99.90;;;;;;6095562;23;20443;-77
2021/01/05 12:09:14;;;;;;;36.83;29.07;;;2.70;99.90;;;;;;6093808;23;20461;-76
2021/01/05 12:11:40;;;;;;;35.10;27.63;;;2.70;99.90;;;;;;6095452;23;20395;-76
2021/01/05 12:14:06;;;;;;;34.23;23.07;;;2.80;99.90;;;;;;6094287;23;20410;-76
2021/01/05 12:16:34;;;;;;;31.17;23.00;;;2.70;99.90;;;;;;6095053;23;20804;-76
2021/01/05 12:19:02;;;;;;;35.67;28.27;;;2.70;99.90;;;;;;6093821;23;20417;-76
2021/01/05 12:21:31;;;;;;;38.53;30.07;;;2.70;99.90;;;;;;6095548;23;20402;-76
2021/01/05 12:23:58;;;;;;;37.23;29.20;;;2.70;99.90;;;;;;6095375;23;20445;-76
2021/01/05 12:26:26;;;;;;;33.07;26.57;;;2.70;99.90;;;;;;6095262;23;20434;-76
2021/01/05 12:28:53;;;;;;;32.33;25.97;;;2.70;99.90;;;;;;6093546;23;20438;-76
2021/01/05 12:31:19;;;;;;;35.50;27.80;;;2.70;99.90;;;;;;6094908;23;20394;-76
2021/01/05 12:33:46;;;;;;;37.37;25.80;;;2.80;99.90;;;;;;6094241;23;20445;-76
2021/01/05 12:36:13;;;;;;;35.13;27.67;;;2.80;99.90;;;;;;6093444;23;20399;-76
2021/01/05 12:38:40;;;;;;;28.60;25.27;;;2.80;99.90;;;;;;6092608;23;20931;-76
2021/01/05 12:41:06;;;;;;;29.03;25.70;;;2.90;99.90;;;;;;6095769;23;20418;-76
2021/01/05 12:43:33;;;;;;;31.50;26.90;;;3.00;99.90;;;;;;6095314;23;21010;-76
2021/01/05 12:45:59;;;;;;;32.10;27.57;;;2.90;99.90;;;;;;6095038;23;20400;-76
2021/01/05 12:48:26;;;;;;;30.07;25.80;;;2.90;99.90;;;;;;6093585;23;20529;-76
2021/01/05 12:50:52;;;;;;;32.50;27.67;;;2.90;99.90;;;;;;6095190;23;20416;-77
2021/01/05 12:53:19;;;;;;;30.43;26.67;;;2.80;99.90;;;;;;6095259;23;20404;-76
2021/01/05 12:55:46;;;;;;;32.03;25.90;;;2.70;99.90;;;;;;6095574;23;20395;-76
2021/01/05 12:58:12;;;;;;;35.07;27.67;;;2.70;99.90;;;;;;6094734;23;20392;-76